sensor_id;sensor_type;location;lat;lon;timestamp;temperature;humidity
5743;DHT22;2896;53.500;10.020;2023-07-13T00:00:05;16.50;1.00
5743;DHT22;2896;53.500;10.020;2023-07-13T00:02:34;16.50;1.00
5743;DHT22;2896;53.500;10.020;2023-07-13T00:05:03;16.50;1.00
5743;DHT22;2896;53.500;10.020;2023-07-13T00:07:29;16.50;1.00
5743;DHT22;2896;53.500;10.020;2023-07-13T00:09:56;16.50;1.00
5743;DHT22;2896;53.500;10.020;2023-07-13T00:12:26;16.50;1.00
5743;DHT22;2896;53.500;10.020;2023-07-13T00:14:55;16.40;1.00
5743;DHT22;2896;53.500;10.020;2023-07-13T00:17:22;16.30;1.00
5743;DHT22;2896;53.500;10.020;2023-07-13T00:19:48;16.20;1.00
5743;DHT22;2896;53.500;10.020;2023-07-13T00:22:16;16.20;1.00
5743;DHT22;2896;53.500;10.020;2023-07-13T00:24:44;16.20;1.00
5743;DHT22;2896;53.500;10.020;2023-07-13T00:27:10;16.10;1.00
5743;DHT22;2896;53.500;10.020;2023-07-13T00:29:37;16.00;1.00
5743;DHT22;2896;53.500;10.020;2023-07-13T00:32:06;16.00;1.00
5743;DHT22;2896;53.500;10.020;2023-07-13T00:34:35;15.90;1.00
5743;DHT22;2896;53.500;10.020;2023-07-13T00:37:01;15.80;1.00
5743;DHT22;2896;53.500;10.020;2023-07-13T00:39:29;15.80;1.00
5743;DHT22;2896;53.500;10.020;2023-07-13T00:41:56;15.80;1.00
5743;DHT22;2896;53.500;10.020;2023-07-13T00:44:22;15.70;1.00
5743;DHT22;2896;53.500;10.020;2023-07-13T00:46:49;15.70;1.00
5743;DHT22;2896;53.500;10.020;2023-07-13T00:49:19;15.60;1.00
5743;DHT22;2896;53.500;10.020;2023-07-13T00:51:50;15.60;1.00
5743;DHT22;2896;53.500;10.020;2023-07-13T00:54:22;15.50;1.00
5743;DHT22;2896;53.500;10.020;2023-07-13T00:56:53;15.50;1.00
5743;DHT22;2896;53.500;10.020;2023-07-13T00:59:22;15.40;1.00
5743;DHT22;2896;53.500;10.020;2023-07-13T01:01:49;15.40;1.00
5743;DHT22;2896;53.500;10.020;2023-07-13T01:04:17;15.40;1.00
5743;DHT22;2896;53.500;10.020;2023-07-13T01:06:44;15.30;1.00
5743;DHT22;2896;53.500;10.020;2023-07-13T01:09:12;15.30;1.00
5743;DHT22;2896;53.500;10.020;2023-07-13T01:11:39;15.30;1.00
5743;DHT22;2896;53.500;10.020;2023-07-13T01:14:08;15.20;1.00
5743;DHT22;2896;53.500;10.020;2023-07-13T01:16:36;15.10;1.00
5743;DHT22;2896;53.500;10.020;2023-07-13T01:19:08;15.10;1.00
5743;DHT22;2896;53.500;10.020;2023-07-13T01:21:40;15.10;1.00
5743;DHT22;2896;53.500;10.020;2023-07-13T01:24:08;15.10;1.00
5743;DHT22;2896;53.500;10.020;2023-07-13T01:26:35;15.10;1.00
5743;DHT22;2896;53.500;10.020;2023-07-13T01:29:01;15.20;1.00
5743;DHT22;2896;53.500;10.020;2023-07-13T01:31:28;15.10;9.60
5743;DHT22;2896;53.500;10.020;2023-07-13T01:33:55;15.10;97.10
5743;DHT22;2896;53.500;10.020;2023-07-13T01:36:22;15.10;99.90
5743;DHT22;2896;53.500;10.020;2023-07-13T01:38:50;15.10;99.90
5743;DHT22;2896;53.500;10.020;2023-07-13T01:41:17;15.10;99.90
5743;DHT22;2896;53.500;10.020;2023-07-13T01:43:44;15.00;99.90
5743;DHT22;2896;53.500;10.020;2023-07-13T01:46:11;15.00;99.90
5743;DHT22;2896;53.500;10.020;2023-07-13T01:48:37;14.90;99.90
5743;DHT22;2896;53.500;10.020;2023-07-13T01:51:04;14.90;99.90
5743;DHT22;2896;53.500;10.020;2023-07-13T01:53:31;14.90;99.90
5743;DHT22;2896;53.500;10.020;2023-07-13T01:55:59;14.90;99.90
5743;DHT22;2896;53.500;10.020;2023-07-13T01:58:25;14.80;99.90
5743;DHT22;2896;53.500;10.020;2023-07-13T02:00:52;14.80;99.90
5743;DHT22;2896;53.500;10.020;2023-07-13T02:03:18;14.70;99.90
5743;DHT22;2896;53.500;10.020;2023-07-13T02:05:45;14.80;99.90
5743;DHT22;2896;53.500;10.020;2023-07-13T02:08:12;14.70;1.00
5743;DHT22;2896;53.500;10.020;2023-07-13T02:10:38;14.70;1.00
5743;DHT22;2896;53.500;10.020;2023-07-13T02:13:07;14.70;1.00
5743;DHT22;2896;53.500;10.020;2023-07-13T02:15:34;14.70;1.00
5743;DHT22;2896;53.500;10.020;2023-07-13T02:18:00;14.70;99.90
5743;DHT22;2896;53.500;10.020;2023-07-13T02:20:28;14.70;99.90
5743;DHT22;2896;53.500;10.020;2023-07-13T02:22:55;14.70;1.00
5743;DHT22;2896;53.500;10.020;2023-07-13T02:25:22;14.70;1.00
5743;DHT22;2896;53.500;10.020;2023-07-13T02:27:50;14.70;99.90
5743;DHT22;2896;53.500;10.020;2023-07-13T02:30:18;14.70;1.00
5743;DHT22;2896;53.500;10.020;2023-07-13T02:32:45;13.10;99.90
5743;DHT22;2896;53.500;10.020;2023-07-13T02:35:12;14.70;99.90
5743;DHT22;2896;53.500;10.020;2023-07-13T02:37:41;14.70;1.00
5743;DHT22;2896;53.500;10.020;2023-07-13T02:40:09;14.70;1.00
5743;DHT22;2896;53.500;10.020;2023-07-13T02:42:36;14.60;99.90
5743;DHT22;2896;53.500;10.020;2023-07-13T02:45:02;14.60;1.00
5743;DHT22;2896;53.500;10.020;2023-07-13T02:47:32;14.60;1.00
5743;DHT22;2896;53.500;10.020;2023-07-13T02:49:58;14.60;1.00
5743;DHT22;2896;53.500;10.020;2023-07-13T02:52:25;14.60;1.00
5743;DHT22;2896;53.500;10.020;2023-07-13T02:54:52;14.60;1.00
5743;DHT22;2896;53.500;10.020;2023-07-13T02:57:18;14.60;1.00
5743;DHT22;2896;53.500;10.020;2023-07-13T02:59:46;14.60;72.50
5743;DHT22;2896;53.500;10.020;2023-07-13T03:02:12;14.60;1.00
5743;DHT22;2896;53.500;10.020;2023-07-13T03:04:40;14.60;1.00
5743;DHT22;2896;53.500;10.020;2023-07-13T03:07:07;14.60;1.00
5743;DHT22;2896;53.500;10.020;2023-07-13T03:09:34;14.50;1.00
5743;DHT22;2896;53.500;10.020;2023-07-13T03:12:02;14.50;99.90
5743;DHT22;2896;53.500;10.020;2023-07-13T03:14:29;14.50;1.00
5743;DHT22;2896;53.500;10.020;2023-07-13T03:16:55;14.50;1.00
5743;DHT22;2896;53.500;10.020;2023-07-13T03:19:22;14.40;1.00
5743;DHT22;2896;53.500;10.020;2023-07-13T03:21:50;14.40;1.00
5743;DHT22;2896;53.500;10.020;2023-07-13T03:24:16;14.40;1.00
5743;DHT22;2896;53.500;10.020;2023-07-13T03:26:43;14.40;1.00
5743;DHT22;2896;53.500;10.020;2023-07-13T03:29:10;14.40;1.00
5743;DHT22;2896;53.500;10.020;2023-07-13T03:31:37;14.40;99.90
5743;DHT22;2896;53.500;10.020;2023-07-13T03:34:03;14.40;99.90
5743;DHT22;2896;53.500;10.020;2023-07-13T03:36:31;14.40;1.00
5743;DHT22;2896;53.500;10.020;2023-07-13T03:39:00;14.40;1.00
5743;DHT22;2896;53.500;10.020;2023-07-13T03:41:28;14.40;1.00
5743;DHT22;2896;53.500;10.020;2023-07-13T03:43:54;14.40;1.00
5743;DHT22;2896;53.500;10.020;2023-07-13T03:46:21;14.50;1.00
5743;DHT22;2896;53.500;10.020;2023-07-13T03:48:48;14.40;1.00
5743;DHT22;2896;53.500;10.020;2023-07-13T03:51:16;14.50;1.00
5743;DHT22;2896;53.500;10.020;2023-07-13T03:53:45;14.50;1.00
5743;DHT22;2896;53.500;10.020;2023-07-13T03:56:13;14.50;1.00
5743;DHT22;2896;53.500;10.020;2023-07-13T03:58:42;14.50;99.90
5743;DHT22;2896;53.500;10.020;2023-07-13T04:01:10;14.60;1.00
5743;DHT22;2896;53.500;10.020;2023-07-13T04:03:38;14.60;99.90
5743;DHT22;2896;53.500;10.020;2023-07-13T04:06:07;14.60;99.90
5743;DHT22;2896;53.500;10.020;2023-07-13T04:08:35;14.60;1.00
5743;DHT22;2896;53.500;10.020;2023-07-13T04:11:03;14.70;99.90
5743;DHT22;2896;53.500;10.020;2023-07-13T04:13:31;14.60;99.90
5743;DHT22;2896;53.500;10.020;2023-07-13T04:15:58;14.70;1.00
5743;DHT22;2896;53.500;10.020;2023-07-13T04:18:25;14.70;1.00
5743;DHT22;2896;53.500;10.020;2023-07-13T04:20:51;14.70;1.00
5743;DHT22;2896;53.500;10.020;2023-07-13T04:23:18;14.70;1.00
5743;DHT22;2896;53.500;10.020;2023-07-13T04:25:45;14.70;1.00
5743;DHT22;2896;53.500;10.020;2023-07-13T04:28:12;14.70;1.00
5743;DHT22;2896;53.500;10.020;2023-07-13T04:30:40;14.80;1.00
5743;DHT22;2896;53.500;10.020;2023-07-13T04:33:07;14.90;1.00
5743;DHT22;2896;53.500;10.020;2023-07-13T04:35:34;14.90;99.90
5743;DHT22;2896;53.500;10.020;2023-07-13T04:38:01;14.90;99.90
5743;DHT22;2896;53.500;10.020;2023-07-13T04:40:28;14.90;99.90
5743;DHT22;2896;53.500;10.020;2023-07-13T04:42:55;15.00;1.00
5743;DHT22;2896;53.500;10.020;2023-07-13T04:45:22;15.00;1.00
5743;DHT22;2896;53.500;10.020;2023-07-13T04:47:51;15.00;1.00
5743;DHT22;2896;53.500;10.020;2023-07-13T04:50:18;15.10;1.00
5743;DHT22;2896;53.500;10.020;2023-07-13T04:52:48;15.20;99.90
5743;DHT22;2896;53.500;10.020;2023-07-13T04:55:15;15.20;99.90
5743;DHT22;2896;53.500;10.020;2023-07-13T04:57:42;15.30;70.50
5743;DHT22;2896;53.500;10.020;2023-07-13T05:00:09;15.30;1.00
5743;DHT22;2896;53.500;10.020;2023-07-13T05:02:38;15.40;1.00
5743;DHT22;2896;53.500;10.020;2023-07-13T05:05:07;15.50;1.00
5743;DHT22;2896;53.500;10.020;2023-07-13T05:07:34;15.50;1.00
5743;DHT22;2896;53.500;10.020;2023-07-13T05:10:00;15.70;1.00
5743;DHT22;2896;53.500;10.020;2023-07-13T05:12:27;15.70;1.00
5743;DHT22;2896;53.500;10.020;2023-07-13T05:14:54;15.90;2.30
5743;DHT22;2896;53.500;10.020;2023-07-13T05:17:20;16.10;1.00
5743;DHT22;2896;53.500;10.020;2023-07-13T05:19:47;16.30;99.90
5743;DHT22;2896;53.500;10.020;2023-07-13T05:22:15;16.40;99.90
5743;DHT22;2896;53.500;10.020;2023-07-13T05:24:42;16.60;26.10
5743;DHT22;2896;53.500;10.020;2023-07-13T05:27:08;16.80;1.00
5743;DHT22;2896;53.500;10.020;2023-07-13T05:29:35;16.90;1.00
5743;DHT22;2896;53.500;10.020;2023-07-13T05:32:02;19.10;1.00
5743;DHT22;2896;53.500;10.020;2023-07-13T05:34:28;17.20;1.00
5743;DHT22;2896;53.500;10.020;2023-07-13T05:36:55;17.30;1.00
5743;DHT22;2896;53.500;10.020;2023-07-13T05:39:23;17.30;1.00
5743;DHT22;2896;53.500;10.020;2023-07-13T05:41:51;17.40;1.00
5743;DHT22;2896;53.500;10.020;2023-07-13T05:44:18;17.30;1.00
5743;DHT22;2896;53.500;10.020;2023-07-13T05:46:45;17.30;1.00
5743;DHT22;2896;53.500;10.020;2023-07-13T05:49:12;17.40;1.00
5743;DHT22;2896;53.500;10.020;2023-07-13T05:51:39;17.40;1.00
5743;DHT22;2896;53.500;10.020;2023-07-13T05:54:05;17.40;1.00
5743;DHT22;2896;53.500;10.020;2023-07-13T05:56:33;17.40;1.00
5743;DHT22;2896;53.500;10.020;2023-07-13T05:59:00;17.50;1.00
5743;DHT22;2896;53.500;10.020;2023-07-13T06:01:26;17.60;1.00
5743;DHT22;2896;53.500;10.020;2023-07-13T06:03:53;17.70;1.00
5743;DHT22;2896;53.500;10.020;2023-07-13T06:06:20;17.80;1.00
5743;DHT22;2896;53.500;10.020;2023-07-13T06:08:46;17.90;1.00
5743;DHT22;2896;53.500;10.020;2023-07-13T06:11:15;17.90;1.00
5743;DHT22;2896;53.500;10.020;2023-07-13T06:13:44;18.00;1.00
5743;DHT22;2896;53.500;10.020;2023-07-13T06:16:11;18.00;1.00
5743;DHT22;2896;53.500;10.020;2023-07-13T06:18:41;16.70;1.00
5743;DHT22;2896;53.500;10.020;2023-07-13T06:21:09;18.10;1.00
5743;DHT22;2896;53.500;10.020;2023-07-13T06:23:36;18.20;1.00
5743;DHT22;2896;53.500;10.020;2023-07-13T06:26:03;18.10;1.00
5743;DHT22;2896;53.500;10.020;2023-07-13T06:28:30;18.20;1.00
5743;DHT22;2896;53.500;10.020;2023-07-13T06:30:59;18.10;1.00
5743;DHT22;2896;53.500;10.020;2023-07-13T06:33:27;18.10;1.00
5743;DHT22;2896;53.500;10.020;2023-07-13T06:35:53;18.30;1.00
5743;DHT22;2896;53.500;10.020;2023-07-13T06:38:21;18.40;1.00
5743;DHT22;2896;53.500;10.020;2023-07-13T06:40:47;18.40;1.00
5743;DHT22;2896;53.500;10.020;2023-07-13T06:43:14;18.40;1.00
5743;DHT22;2896;53.500;10.020;2023-07-13T06:45:43;18.50;1.00
5743;DHT22;2896;53.500;10.020;2023-07-13T06:48:12;18.60;1.00
5743;DHT22;2896;53.500;10.020;2023-07-13T06:50:39;18.50;1.00
5743;DHT22;2896;53.500;10.020;2023-07-13T06:53:06;18.50;1.00
5743;DHT22;2896;53.500;10.020;2023-07-13T06:55:32;18.60;1.00
5743;DHT22;2896;53.500;10.020;2023-07-13T06:57:59;18.60;1.00
5743;DHT22;2896;53.500;10.020;2023-07-13T07:00:26;18.70;1.00
5743;DHT22;2896;53.500;10.020;2023-07-13T07:02:52;18.80;1.00
5743;DHT22;2896;53.500;10.020;2023-07-13T07:05:20;18.90;1.00
5743;DHT22;2896;53.500;10.020;2023-07-13T07:07:47;18.90;99.90
5743;DHT22;2896;53.500;10.020;2023-07-13T07:10:14;18.80;99.90
5743;DHT22;2896;53.500;10.020;2023-07-13T07:12:40;18.90;99.90
5743;DHT22;2896;53.500;10.020;2023-07-13T07:15:07;19.00;1.00
5743;DHT22;2896;53.500;10.020;2023-07-13T07:17:34;19.00;99.90
5743;DHT22;2896;53.500;10.020;2023-07-13T07:20:01;19.00;99.90
5743;DHT22;2896;53.500;10.020;2023-07-13T07:22:30;19.00;99.90
5743;DHT22;2896;53.500;10.020;2023-07-13T07:24:57;19.10;1.00
5743;DHT22;2896;53.500;10.020;2023-07-13T07:27:23;19.10;99.90
5743;DHT22;2896;53.500;10.020;2023-07-13T07:29:50;19.20;99.90
5743;DHT22;2896;53.500;10.020;2023-07-13T07:32:17;19.50;1.00
5743;DHT22;2896;53.500;10.020;2023-07-13T07:34:44;19.70;99.90
5743;DHT22;2896;53.500;10.020;2023-07-13T07:37:11;19.80;99.90
5743;DHT22;2896;53.500;10.020;2023-07-13T07:39:40;19.80;99.90
5743;DHT22;2896;53.500;10.020;2023-07-13T07:42:07;19.90;99.90
5743;DHT22;2896;53.500;10.020;2023-07-13T07:44:33;20.00;99.90
5743;DHT22;2896;53.500;10.020;2023-07-13T07:47:00;20.10;99.90
5743;DHT22;2896;53.500;10.020;2023-07-13T07:49:28;20.10;99.90
5743;DHT22;2896;53.500;10.020;2023-07-13T07:51:54;20.20;99.90
5743;DHT22;2896;53.500;10.020;2023-07-13T07:54:21;20.30;99.90
5743;DHT22;2896;53.500;10.020;2023-07-13T07:56:49;20.40;99.90
5743;DHT22;2896;53.500;10.020;2023-07-13T07:59:16;20.40;99.90
5743;DHT22;2896;53.500;10.020;2023-07-13T08:01:42;20.50;99.90
5743;DHT22;2896;53.500;10.020;2023-07-13T08:04:11;20.30;99.90
5743;DHT22;2896;53.500;10.020;2023-07-13T08:06:38;20.30;99.90
5743;DHT22;2896;53.500;10.020;2023-07-13T08:09:04;20.40;99.90
5743;DHT22;2896;53.500;10.020;2023-07-13T08:11:31;20.50;99.90
5743;DHT22;2896;53.500;10.020;2023-07-13T08:13:59;20.60;99.90
5743;DHT22;2896;53.500;10.020;2023-07-13T08:16:26;20.80;99.90
5743;DHT22;2896;53.500;10.020;2023-07-13T08:18:53;20.90;99.90
5743;DHT22;2896;53.500;10.020;2023-07-13T08:21:20;21.00;99.90
5743;DHT22;2896;53.500;10.020;2023-07-13T08:23:47;21.20;99.90
5743;DHT22;2896;53.500;10.020;2023-07-13T08:26:15;21.30;99.90
5743;DHT22;2896;53.500;10.020;2023-07-13T08:28:41;21.40;99.90
5743;DHT22;2896;53.500;10.020;2023-07-13T08:31:10;21.50;99.90
5743;DHT22;2896;53.500;10.020;2023-07-13T08:33:37;21.60;99.90
5743;DHT22;2896;53.500;10.020;2023-07-13T08:36:06;21.70;99.90
5743;DHT22;2896;53.500;10.020;2023-07-13T08:38:33;21.80;99.90
5743;DHT22;2896;53.500;10.020;2023-07-13T08:41:09;21.80;99.90
5743;DHT22;2896;53.500;10.020;2023-07-13T08:43:37;22.10;99.90
5743;DHT22;2896;53.500;10.020;2023-07-13T09:06:55;22.50;99.90
5743;DHT22;2896;53.500;10.020;2023-07-13T09:09:27;22.40;99.90
5743;DHT22;2896;53.500;10.020;2023-07-13T09:12:11;22.30;99.90
5743;DHT22;2896;53.500;10.020;2023-07-13T09:14:43;22.10;99.90
5743;DHT22;2896;53.500;10.020;2023-07-13T09:17:14;21.90;99.90
5743;DHT22;2896;53.500;10.020;2023-07-13T09:19:42;21.70;99.90
5743;DHT22;2896;53.500;10.020;2023-07-13T09:22:15;21.70;99.90
5743;DHT22;2896;53.500;10.020;2023-07-13T09:24:52;21.70;99.90
5743;DHT22;2896;53.500;10.020;2023-07-13T09:27:22;22.00;99.90
5743;DHT22;2896;53.500;10.020;2023-07-13T09:29:55;22.30;99.90
5743;DHT22;2896;53.500;10.020;2023-07-13T09:32:25;22.50;99.90
5743;DHT22;2896;53.500;10.020;2023-07-13T09:34:53;22.50;99.90
5743;DHT22;2896;53.500;10.020;2023-07-13T09:37:27;22.70;99.90
5743;DHT22;2896;53.500;10.020;2023-07-13T09:39:55;22.90;99.90
5743;DHT22;2896;53.500;10.020;2023-07-13T09:42:23;23.50;99.90
5743;DHT22;2896;53.500;10.020;2023-07-13T09:44:53;23.70;99.90
5743;DHT22;2896;53.500;10.020;2023-07-13T09:47:22;23.60;99.90
5743;DHT22;2896;53.500;10.020;2023-07-13T09:49:54;23.60;99.90
5743;DHT22;2896;53.500;10.020;2023-07-13T09:52:23;23.70;99.90
5743;DHT22;2896;53.500;10.020;2023-07-13T09:54:51;23.90;99.90
5743;DHT22;2896;53.500;10.020;2023-07-13T09:57:23;24.00;99.90
5743;DHT22;2896;53.500;10.020;2023-07-13T09:59:52;24.10;99.90
5743;DHT22;2896;53.500;10.020;2023-07-13T10:02:27;24.50;99.90
5743;DHT22;2896;53.500;10.020;2023-07-13T10:04:59;24.40;99.90
5743;DHT22;2896;53.500;10.020;2023-07-13T10:07:27;23.90;99.90
5743;DHT22;2896;53.500;10.020;2023-07-13T10:09:54;23.60;99.90
5743;DHT22;2896;53.500;10.020;2023-07-13T10:12:22;23.30;99.90
5743;DHT22;2896;53.500;10.020;2023-07-13T10:14:52;23.20;99.90
5743;DHT22;2896;53.500;10.020;2023-07-13T10:17:25;23.30;99.90
5743;DHT22;2896;53.500;10.020;2023-07-13T10:19:52;23.50;99.90
5743;DHT22;2896;53.500;10.020;2023-07-13T10:22:25;23.40;99.90
5743;DHT22;2896;53.500;10.020;2023-07-13T10:24:55;23.20;99.90
5743;DHT22;2896;53.500;10.020;2023-07-13T10:27:29;23.10;99.90
5743;DHT22;2896;53.500;10.020;2023-07-13T10:30:02;22.90;99.90
5743;DHT22;2896;53.500;10.020;2023-07-13T10:32:31;25.10;99.90
5743;DHT22;2896;53.500;10.020;2023-07-13T10:34:58;24.10;99.90
5743;DHT22;2896;53.500;10.020;2023-07-13T10:37:29;24.30;99.90
5743;DHT22;2896;53.500;10.020;2023-07-13T10:39:57;24.60;99.90
5743;DHT22;2896;53.500;10.020;2023-07-13T10:42:28;24.80;99.90
5743;DHT22;2896;53.500;10.020;2023-07-13T10:44:55;25.20;99.90
5743;DHT22;2896;53.500;10.020;2023-07-13T10:47:22;25.50;99.90
5743;DHT22;2896;53.500;10.020;2023-07-13T10:49:55;25.60;99.90
5743;DHT22;2896;53.500;10.020;2023-07-13T10:52:41;25.80;99.90
5743;DHT22;2896;53.500;10.020;2023-07-13T10:55:38;25.30;99.90
5743;DHT22;2896;53.500;10.020;2023-07-13T10:58:14;24.70;99.90
5743;DHT22;2896;53.500;10.020;2023-07-13T11:00:47;24.30;99.90
5743;DHT22;2896;53.500;10.020;2023-07-13T11:03:18;24.40;99.90
5743;DHT22;2896;53.500;10.020;2023-07-13T11:05:49;25.00;99.90
5743;DHT22;2896;53.500;10.020;2023-07-13T11:08:23;25.20;99.90
5743;DHT22;2896;53.500;10.020;2023-07-13T11:10:59;25.80;99.90
5743;DHT22;2896;53.500;10.020;2023-07-13T11:16:42;26.50;99.90
5743;DHT22;2896;53.500;10.020;2023-07-13T11:22:21;26.40;99.90
5743;DHT22;2896;53.500;10.020;2023-07-13T11:24:51;26.40;99.90
5743;DHT22;2896;53.500;10.020;2023-07-13T11:27:35;25.80;99.90
5743;DHT22;2896;53.500;10.020;2023-07-13T11:30:22;25.70;99.90
5743;DHT22;2896;53.500;10.020;2023-07-13T11:33:02;25.70;99.90
5743;DHT22;2896;53.500;10.020;2023-07-13T11:35:35;25.70;99.90
5743;DHT22;2896;53.500;10.020;2023-07-13T11:38:13;25.70;99.90
5743;DHT22;2896;53.500;10.020;2023-07-13T11:40:41;26.00;99.90
5743;DHT22;2896;53.500;10.020;2023-07-13T11:43:13;26.40;99.90
5743;DHT22;2896;53.500;10.020;2023-07-13T11:45:40;26.70;99.90
5743;DHT22;2896;53.500;10.020;2023-07-13T11:48:18;27.40;99.90
5743;DHT22;2896;53.500;10.020;2023-07-13T11:50:53;27.30;99.90
5743;DHT22;2896;53.500;10.020;2023-07-13T11:53:22;27.60;99.90
5743;DHT22;2896;53.500;10.020;2023-07-13T11:55:50;27.00;99.90
5743;DHT22;2896;53.500;10.020;2023-07-13T11:58:23;26.40;99.90
5743;DHT22;2896;53.500;10.020;2023-07-13T12:00:50;26.00;99.90
5743;DHT22;2896;53.500;10.020;2023-07-13T12:03:22;26.40;99.90
5743;DHT22;2896;53.500;10.020;2023-07-13T12:05:58;26.90;99.90
5743;DHT22;2896;53.500;10.020;2023-07-13T12:08:25;27.00;99.90
5743;DHT22;2896;53.500;10.020;2023-07-13T12:11:04;26.60;99.90
5743;DHT22;2896;53.500;10.020;2023-07-13T12:13:37;26.10;99.90
5743;DHT22;2896;53.500;10.020;2023-07-13T12:16:12;25.60;99.90
5743;DHT22;2896;53.500;10.020;2023-07-13T12:18:42;25.20;99.90
5743;DHT22;2896;53.500;10.020;2023-07-13T12:21:13;24.90;99.90
5743;DHT22;2896;53.500;10.020;2023-07-13T12:23:43;24.00;99.90
5743;DHT22;2896;53.500;10.020;2023-07-13T12:26:11;23.10;99.90
5743;DHT22;2896;53.500;10.020;2023-07-13T12:28:46;22.30;99.90
5743;DHT22;2896;53.500;10.020;2023-07-13T12:31:30;21.60;99.90
5743;DHT22;2896;53.500;10.020;2023-07-13T12:34:00;21.10;99.90
5743;DHT22;2896;53.500;10.020;2023-07-13T12:36:31;21.20;99.90
5743;DHT22;2896;53.500;10.020;2023-07-13T12:39:03;21.40;99.90
5743;DHT22;2896;53.500;10.020;2023-07-13T12:41:31;21.40;99.90
5743;DHT22;2896;53.500;10.020;2023-07-13T12:44:00;22.00;99.90
5743;DHT22;2896;53.500;10.020;2023-07-13T12:46:27;22.40;99.90
5743;DHT22;2896;53.500;10.020;2023-07-13T12:48:56;22.50;99.90
5743;DHT22;2896;53.500;10.020;2023-07-13T12:51:25;22.30;99.90
5743;DHT22;2896;53.500;10.020;2023-07-13T12:53:59;22.30;99.90
5743;DHT22;2896;53.500;10.020;2023-07-13T12:56:33;22.30;99.90
5743;DHT22;2896;53.500;10.020;2023-07-13T12:59:04;21.90;99.90
5743;DHT22;2896;53.500;10.020;2023-07-13T13:01:34;21.70;99.90
5743;DHT22;2896;53.500;10.020;2023-07-13T13:04:03;21.40;99.90
5743;DHT22;2896;53.500;10.020;2023-07-13T13:06:32;21.30;99.90
5743;DHT22;2896;53.500;10.020;2023-07-13T13:09:01;20.90;99.90
5743;DHT22;2896;53.500;10.020;2023-07-13T13:11:30;21.00;99.90
5743;DHT22;2896;53.500;10.020;2023-07-13T13:13:57;20.80;99.90
5743;DHT22;2896;53.500;10.020;2023-07-13T13:16:31;20.80;99.90
5743;DHT22;2896;53.500;10.020;2023-07-13T13:19:00;20.80;99.90
5743;DHT22;2896;53.500;10.020;2023-07-13T13:21:29;20.80;99.90
5743;DHT22;2896;53.500;10.020;2023-07-13T13:23:58;21.00;99.90
5743;DHT22;2896;53.500;10.020;2023-07-13T13:26:24;21.10;99.90
5743;DHT22;2896;53.500;10.020;2023-07-13T13:28:51;21.20;99.90
5743;DHT22;2896;53.500;10.020;2023-07-13T13:31:18;21.50;99.90
5743;DHT22;2896;53.500;10.020;2023-07-13T13:33:46;21.70;99.90
5743;DHT22;2896;53.500;10.020;2023-07-13T13:36:15;21.90;99.90
5743;DHT22;2896;53.500;10.020;2023-07-13T13:38:42;21.90;99.90
5743;DHT22;2896;53.500;10.020;2023-07-13T13:41:10;21.90;99.90
5743;DHT22;2896;53.500;10.020;2023-07-13T13:43:36;22.10;99.90
5743;DHT22;2896;53.500;10.020;2023-07-13T13:46:12;22.00;99.90
5743;DHT22;2896;53.500;10.020;2023-07-13T13:48:40;22.00;99.90
5743;DHT22;2896;53.500;10.020;2023-07-13T13:51:13;22.00;99.90
5743;DHT22;2896;53.500;10.020;2023-07-13T13:53:41;21.80;99.90
5743;DHT22;2896;53.500;10.020;2023-07-13T13:56:08;21.50;99.90
5743;DHT22;2896;53.500;10.020;2023-07-13T13:58:34;21.50;99.90
5743;DHT22;2896;53.500;10.020;2023-07-13T14:01:02;21.60;99.90
5743;DHT22;2896;53.500;10.020;2023-07-13T14:03:31;21.60;99.90
5743;DHT22;2896;53.500;10.020;2023-07-13T14:05:58;21.50;99.90
5743;DHT22;2896;53.500;10.020;2023-07-13T14:08:26;22.60;99.90
5743;DHT22;2896;53.500;10.020;2023-07-13T14:10:55;21.30;99.90
5743;DHT22;2896;53.500;10.020;2023-07-13T14:13:26;21.20;99.90
5743;DHT22;2896;53.500;10.020;2023-07-13T14:15:53;21.30;99.90
5743;DHT22;2896;53.500;10.020;2023-07-13T14:18:20;21.40;99.90
5743;DHT22;2896;53.500;10.020;2023-07-13T14:20:48;21.40;99.90
5743;DHT22;2896;53.500;10.020;2023-07-13T14:23:16;21.60;99.90
5743;DHT22;2896;53.500;10.020;2023-07-13T14:25:45;21.80;99.90
5743;DHT22;2896;53.500;10.020;2023-07-13T14:28:20;21.90;99.90
5743;DHT22;2896;53.500;10.020;2023-07-13T14:30:48;22.10;99.90
5743;DHT22;2896;53.500;10.020;2023-07-13T14:33:15;21.90;99.90
5743;DHT22;2896;53.500;10.020;2023-07-13T14:35:42;22.00;99.90
5743;DHT22;2896;53.500;10.020;2023-07-13T14:38:11;22.20;99.90
5743;DHT22;2896;53.500;10.020;2023-07-13T14:40:39;22.20;99.90
5743;DHT22;2896;53.500;10.020;2023-07-13T14:43:10;22.00;99.90
5743;DHT22;2896;53.500;10.020;2023-07-13T14:45:39;21.70;99.90
5743;DHT22;2896;53.500;10.020;2023-07-13T14:48:16;22.00;99.90
5743;DHT22;2896;53.500;10.020;2023-07-13T14:50:44;22.00;99.90
5743;DHT22;2896;53.500;10.020;2023-07-13T14:53:12;22.20;99.90
5743;DHT22;2896;53.500;10.020;2023-07-13T14:55:39;22.40;99.90
5743;DHT22;2896;53.500;10.020;2023-07-13T14:58:08;22.40;99.90
5743;DHT22;2896;53.500;10.020;2023-07-13T15:00:36;22.50;99.90
5743;DHT22;2896;53.500;10.020;2023-07-13T15:03:04;22.50;99.90
5743;DHT22;2896;53.500;10.020;2023-07-13T15:05:32;22.50;99.90
5743;DHT22;2896;53.500;10.020;2023-07-13T15:08:00;22.30;99.90
5743;DHT22;2896;53.500;10.020;2023-07-13T15:10:31;22.00;99.90
5743;DHT22;2896;53.500;10.020;2023-07-13T15:12:59;21.90;99.90
5743;DHT22;2896;53.500;10.020;2023-07-13T15:15:28;21.50;99.90
5743;DHT22;2896;53.500;10.020;2023-07-13T15:17:58;21.50;99.90
5743;DHT22;2896;53.500;10.020;2023-07-13T15:20:30;21.70;99.90
5743;DHT22;2896;53.500;10.020;2023-07-13T15:22:58;22.30;99.90
5743;DHT22;2896;53.500;10.020;2023-07-13T15:25:27;22.90;99.90
5743;DHT22;2896;53.500;10.020;2023-07-13T15:27:56;22.90;99.90
5743;DHT22;2896;53.500;10.020;2023-07-13T15:30:25;22.80;99.90
5743;DHT22;2896;53.500;10.020;2023-07-13T15:32:54;22.80;99.90
5743;DHT22;2896;53.500;10.020;2023-07-13T15:35:25;22.80;99.90
5743;DHT22;2896;53.500;10.020;2023-07-13T15:37:53;22.60;99.90
5743;DHT22;2896;53.500;10.020;2023-07-13T15:40:20;22.40;99.90
5743;DHT22;2896;53.500;10.020;2023-07-13T15:42:47;22.30;99.90
5743;DHT22;2896;53.500;10.020;2023-07-13T15:45:15;22.10;99.90
5743;DHT22;2896;53.500;10.020;2023-07-13T15:47:43;22.20;99.90
5743;DHT22;2896;53.500;10.020;2023-07-13T15:50:13;22.20;99.90
5743;DHT22;2896;53.500;10.020;2023-07-13T15:52:41;22.50;99.90
5743;DHT22;2896;53.500;10.020;2023-07-13T15:55:10;22.50;99.90
5743;DHT22;2896;53.500;10.020;2023-07-13T15:57:43;22.60;99.90
5743;DHT22;2896;53.500;10.020;2023-07-13T16:00:21;22.50;99.90
5743;DHT22;2896;53.500;10.020;2023-07-13T16:02:48;22.40;99.90
5743;DHT22;2896;53.500;10.020;2023-07-13T16:05:15;22.30;99.90
5743;DHT22;2896;53.500;10.020;2023-07-13T16:07:44;22.20;99.90
5743;DHT22;2896;53.500;10.020;2023-07-13T16:10:14;22.20;99.90
5743;DHT22;2896;53.500;10.020;2023-07-13T16:12:41;22.00;99.90
5743;DHT22;2896;53.500;10.020;2023-07-13T16:15:12;22.00;99.90
5743;DHT22;2896;53.500;10.020;2023-07-13T16:17:39;21.90;99.90
5743;DHT22;2896;53.500;10.020;2023-07-13T16:20:07;21.80;99.90
5743;DHT22;2896;53.500;10.020;2023-07-13T16:22:36;21.80;99.90
5743;DHT22;2896;53.500;10.020;2023-07-13T16:25:13;21.70;99.90
5743;DHT22;2896;53.500;10.020;2023-07-13T16:27:40;21.70;99.90